KCKB/CKB METAR and TAF weather

Enter ICAO airport designator
Station Type Date Time Source
KCKB METAR 2023/02/05 23:53 UTC NOAA

KCKB 052353Z 19004KT 10SM BKN085 10/M04 A2996 RMK AO2 SLP144 T01001039 10139 20094 55002


Station Type Date Time Source
KCKB Decoded METAR 2023/02/05 23:53 UTC NOAA

HARRISON/MARION REGIONAL, WV, United States (KCKB) 39-18N 080-13W 360M
Feb 05, 2023 - 06:53 PM EST / 2023.02.05 2353 UTC
Wind: from the S (190 degrees) at 5 MPH (4 KT):0
Visibility: 10 mile(s):0
Sky conditions: mostly cloudy
Temperature: 50.0 F (10.0 C)
Dew Point: 25.0 F (-3.9 C)
Relative Humidity: 37%
Pressure (altimeter): 29.96 in. Hg (1014 hPa)
Pressure tendency: 0.01 inches (0.2 hPa) lower than three hours ago
ob: KCKB 052353Z 19004KT 10SM BKN085 10/M04 A2996 RMK AO2 SLP144 T01001039 10139 20094 55002
cycle: 0

Station Type Date Time Source
KCKB TAF 2023/02/05 21:18 UTC NOAA

TAF
AMD KCKB 052116Z 0521/0618 22014G23KT P6SM BKN180
FM052200 21010G19KT P6SM SCT150
FM060000 20005KT P6SM BKN060
FM060300 23006KT P6SM OVC035
FM060500 27007KT P6SM OVC025
FM061000 29006KT P6SM OVC019
FM061700 32005KT P6SM BKN019

Example: see airport list